Главная страница
METAR-TAF:

METAR-TAF

Аэропорты :

Париж — Шарль-де-Голль, Франция

широта: 49-01N, долгота: 002-32E, высота над уровнем моря: 118 м

Текущие метеонаблюдения

Эта сводка был подготовлена 16 минут назад, в 07:30 UTC
Ветер 3 Узел от восточно-юго-восточный, изменяющийся между восточно-северо-восточный и южный
Температура 20°C
Влажность 60%
Давление 1020 hPa
Видимость 10 км и более
небольшая облачность на высоте 4400 фута

METAR: LFPG 170730Z 12003KT 070V180 9999 FEW044 20/12 Q1020 NOSIG

Время: 09:46 (07:46 UTC)

Прогноз

Эта сводка был подготовлена 2 часа и 46 минут назад, в 05:00 UTC
Прогноз действительный с 17-го 06 UTC до 18-го 12 UTC
Ветер 5 Узел от юго-восточный
Видимость 10 км и более
Нет облачности ниже 1500 м, и нет кучево-дождевой облачности
временами
С 17-го 21 UTC до 17-го 24 UTC
Ветер 2 Узел переменных направлений

TAF: LFPG 170500Z 1706/1812 13005KT CAVOK TX27/1715Z TN16/1804Z TEMPO 1721/1724 VRB02KT

Метеонаблюдения и прогнозы для более 4000 аэропортов (сводки METAR и TAF).

Имеющиеся станции представлены на карте желтыми и красными точками.

Чтобы увидеть название станции, наведите на нее мышь.

Затем щелкните, чтобы увидеть метеонаблюдения и метеопрогнозы.

Управление картой: чтобы увеличить масштаб, щелкните зеленые кнопки с черным крестиком; чтобы уменьшить масштаб, щелкните зеленую кнопку с тире; для просмотра соседних карт щелкайте зеленые стрелки.


METAR-TAF: